sensor_id;sensor_type;location;lat;lon;timestamp;P1;durP1;ratioP1;P2;durP2;ratioP2
10605;SDS011;5350;42.698;23.148;2023-05-10T00:00:58;11.13;;;8.57;;
10605;SDS011;5350;42.698;23.148;2023-05-10T00:03:26;8.93;;;8.03;;
10605;SDS011;5350;42.698;23.148;2023-05-10T00:05:52;7.83;;;6.43;;
10605;SDS011;5350;42.698;23.148;2023-05-10T00:08:19;8.07;;;6.63;;
10605;SDS011;5350;42.698;23.148;2023-05-10T00:10:46;8.00;;;6.83;;
10605;SDS011;5350;42.698;23.148;2023-05-10T00:13:13;6.77;;;6.07;;
10605;SDS011;5350;42.698;23.148;2023-05-10T00:15:39;6.90;;;6.03;;
10605;SDS011;5350;42.698;23.148;2023-05-10T00:18:06;6.97;;;5.93;;
10605;SDS011;5350;42.698;23.148;2023-05-10T00:20:34;6.70;;;5.90;;
10605;SDS011;5350;42.698;23.148;2023-05-10T00:23:01;7.10;;;6.40;;
10605;SDS011;5350;42.698;23.148;2023-05-10T00:25:28;7.60;;;6.40;;
10605;SDS011;5350;42.698;23.148;2023-05-10T00:27:54;6.77;;;6.07;;
10605;SDS011;5350;42.698;23.148;2023-05-10T00:30:22;6.63;;;5.93;;
10605;SDS011;5350;42.698;23.148;2023-05-10T00:32:49;7.03;;;6.33;;
10605;SDS011;5350;42.698;23.148;2023-05-10T00:35:16;7.10;;;6.43;;
10605;SDS011;5350;42.698;23.148;2023-05-10T00:37:44;8.30;;;6.90;;
10605;SDS011;5350;42.698;23.148;2023-05-10T00:40:11;8.50;;;6.83;;
10605;SDS011;5350;42.698;23.148;2023-05-10T00:42:38;6.80;;;6.10;;
10605;SDS011;5350;42.698;23.148;2023-05-10T00:45:05;7.83;;;6.93;;
10605;SDS011;5350;42.698;23.148;2023-05-10T00:47:33;7.70;;;6.50;;
10605;SDS011;5350;42.698;23.148;2023-05-10T00:50:00;6.90;;;6.20;;
10605;SDS011;5350;42.698;23.148;2023-05-10T00:52:27;6.93;;;6.23;;
10605;SDS011;5350;42.698;23.148;2023-05-10T00:54:56;7.03;;;6.33;;
10605;SDS011;5350;42.698;23.148;2023-05-10T00:57:23;7.63;;;6.83;;
10605;SDS011;5350;42.698;23.148;2023-05-10T00:59:50;9.47;;;7.00;;
10605;SDS011;5350;42.698;23.148;2023-05-10T01:02:17;7.10;;;6.50;;
10605;SDS011;5350;42.698;23.148;2023-05-10T01:04:44;8.03;;;6.50;;
10605;SDS011;5350;42.698;23.148;2023-05-10T01:07:11;6.63;;;6.03;;
10605;SDS011;5350;42.698;23.148;2023-05-10T01:09:37;7.57;;;6.73;;
10605;SDS011;5350;42.698;23.148;2023-05-10T01:12:06;7.60;;;6.83;;
10605;SDS011;5350;42.698;23.148;2023-05-10T01:14:33;7.43;;;6.67;;
10605;SDS011;5350;42.698;23.148;2023-05-10T01:17:01;7.97;;;7.10;;
10605;SDS011;5350;42.698;23.148;2023-05-10T01:19:29;7.60;;;6.90;;
10605;SDS011;5350;42.698;23.148;2023-05-10T01:22:02;8.27;;;7.30;;
10605;SDS011;5350;42.698;23.148;2023-05-10T01:25:03;7.23;;;6.53;;
10605;SDS011;5350;42.698;23.148;2023-05-10T01:27:51;7.40;;;6.70;;
10605;SDS011;5350;42.698;23.148;2023-05-10T01:33:37;7.67;;;6.60;;
10605;SDS011;5350;42.698;23.148;2023-05-10T01:36:23;9.67;;;6.97;;
10605;SDS011;5350;42.698;23.148;2023-05-10T01:38:57;6.70;;;6.10;;
10605;SDS011;5350;42.698;23.148;2023-05-10T01:41:29;7.33;;;6.63;;
10605;SDS011;5350;42.698;23.148;2023-05-10T01:44:08;6.47;;;5.90;;
10605;SDS011;5350;42.698;23.148;2023-05-10T01:46:43;7.40;;;6.70;;
10605;SDS011;5350;42.698;23.148;2023-05-10T01:49:16;6.70;;;6.10;;
10605;SDS011;5350;42.698;23.148;2023-05-10T01:51:50;7.30;;;6.30;;
10605;SDS011;5350;42.698;23.148;2023-05-10T01:54:20;7.33;;;6.67;;
10605;SDS011;5350;42.698;23.148;2023-05-10T01:56:50;7.30;;;6.60;;
10605;SDS011;5350;42.698;23.148;2023-05-10T01:59:22;7.47;;;6.63;;
10605;SDS011;5350;42.698;23.148;2023-05-10T02:01:54;7.30;;;6.57;;
10605;SDS011;5350;42.698;23.148;2023-05-10T02:04:25;7.07;;;6.37;;
10605;SDS011;5350;42.698;23.148;2023-05-10T02:06:53;6.93;;;6.33;;
10605;SDS011;5350;42.698;23.148;2023-05-10T02:09:22;5.83;;;5.33;;
10605;SDS011;5350;42.698;23.148;2023-05-10T02:11:50;6.73;;;6.13;;
10605;SDS011;5350;42.698;23.148;2023-05-10T02:14:18;7.17;;;6.20;;
10605;SDS011;5350;42.698;23.148;2023-05-10T02:16:47;8.73;;;5.93;;
10605;SDS011;5350;42.698;23.148;2023-05-10T02:19:16;6.10;;;5.13;;
10605;SDS011;5350;42.698;23.148;2023-05-10T02:21:47;5.77;;;5.10;;
10605;SDS011;5350;42.698;23.148;2023-05-10T02:24:16;5.67;;;5.17;;
10605;SDS011;5350;42.698;23.148;2023-05-10T02:26:45;6.83;;;4.83;;
10605;SDS011;5350;42.698;23.148;2023-05-10T02:29:16;5.40;;;4.57;;
10605;SDS011;5350;42.698;23.148;2023-05-10T02:31:43;4.97;;;4.57;;
10605;SDS011;5350;42.698;23.148;2023-05-10T02:34:11;5.00;;;4.60;;
10605;SDS011;5350;42.698;23.148;2023-05-10T02:36:39;4.60;;;4.20;;
10605;SDS011;5350;42.698;23.148;2023-05-10T02:39:08;4.57;;;4.17;;
10605;SDS011;5350;42.698;23.148;2023-05-10T02:41:37;3.97;;;3.60;;
10605;SDS011;5350;42.698;23.148;2023-05-10T02:44:07;4.43;;;4.00;;
10605;SDS011;5350;42.698;23.148;2023-05-10T02:46:35;4.63;;;4.23;;
10605;SDS011;5350;42.698;23.148;2023-05-10T02:49:02;4.70;;;4.00;;
10605;SDS011;5350;42.698;23.148;2023-05-10T02:51:30;4.70;;;4.00;;
10605;SDS011;5350;42.698;23.148;2023-05-10T02:53:59;4.83;;;4.17;;
10605;SDS011;5350;42.698;23.148;2023-05-10T02:56:31;4.50;;;3.83;;
10605;SDS011;5350;42.698;23.148;2023-05-10T02:59:00;3.73;;;3.30;;
10605;SDS011;5350;42.698;23.148;2023-05-10T03:01:27;4.20;;;3.87;;
10605;SDS011;5350;42.698;23.148;2023-05-10T03:03:54;6.97;;;3.70;;
10605;SDS011;5350;42.698;23.148;2023-05-10T03:06:20;4.60;;;4.10;;
10605;SDS011;5350;42.698;23.148;2023-05-10T03:08:47;5.13;;;4.10;;
10605;SDS011;5350;42.698;23.148;2023-05-10T03:11:22;5.23;;;3.83;;
10605;SDS011;5350;42.698;23.148;2023-05-10T03:14:04;4.53;;;4.13;;
10605;SDS011;5350;42.698;23.148;2023-05-10T03:16:39;4.23;;;3.57;;
10605;SDS011;5350;42.698;23.148;2023-05-10T03:19:12;4.60;;;4.10;;
10605;SDS011;5350;42.698;23.148;2023-05-10T03:21:44;4.27;;;3.57;;
10605;SDS011;5350;42.698;23.148;2023-05-10T03:24:16;4.67;;;4.27;;
10605;SDS011;5350;42.698;23.148;2023-05-10T03:26:44;4.73;;;3.70;;
10605;SDS011;5350;42.698;23.148;2023-05-10T03:29:13;5.43;;;4.80;;
10605;SDS011;5350;42.698;23.148;2023-05-10T03:31:41;4.57;;;3.80;;
10605;SDS011;5350;42.698;23.148;2023-05-10T03:34:08;5.60;;;4.80;;
10605;SDS011;5350;42.698;23.148;2023-05-10T03:36:34;5.80;;;4.60;;
10605;SDS011;5350;42.698;23.148;2023-05-10T03:39:01;4.63;;;4.20;;
10605;SDS011;5350;42.698;23.148;2023-05-10T03:41:28;4.50;;;4.10;;
10605;SDS011;5350;42.698;23.148;2023-05-10T03:43:55;6.07;;;4.53;;
10605;SDS011;5350;42.698;23.148;2023-05-10T03:46:23;5.27;;;4.77;;
10605;SDS011;5350;42.698;23.148;2023-05-10T03:48:50;6.73;;;4.70;;
10605;SDS011;5350;42.698;23.148;2023-05-10T03:51:16;5.47;;;4.97;;
10605;SDS011;5350;42.698;23.148;2023-05-10T03:53:43;5.80;;;4.70;;
10605;SDS011;5350;42.698;23.148;2023-05-10T03:56:10;5.77;;;5.10;;
10605;SDS011;5350;42.698;23.148;2023-05-10T03:58:37;5.03;;;4.53;;
10605;SDS011;5350;42.698;23.148;2023-05-10T04:01:03;5.03;;;4.53;;
10605;SDS011;5350;42.698;23.148;2023-05-10T04:03:31;5.10;;;4.60;;
10605;SDS011;5350;42.698;23.148;2023-05-10T04:06:00;5.17;;;4.67;;
10605;SDS011;5350;42.698;23.148;2023-05-10T04:08:27;5.57;;;4.97;;
10605;SDS011;5350;42.698;23.148;2023-05-10T04:10:54;4.93;;;4.27;;
10605;SDS011;5350;42.698;23.148;2023-05-10T04:13:21;6.87;;;4.63;;
10605;SDS011;5350;42.698;23.148;2023-05-10T04:15:47;4.80;;;4.40;;
10605;SDS011;5350;42.698;23.148;2023-05-10T04:18:14;7.17;;;4.83;;
10605;SDS011;5350;42.698;23.148;2023-05-10T04:20:43;5.63;;;4.53;;
10605;SDS011;5350;42.698;23.148;2023-05-10T04:23:10;5.63;;;4.83;;
10605;SDS011;5350;42.698;23.148;2023-05-10T04:25:36;6.83;;;4.63;;
10605;SDS011;5350;42.698;23.148;2023-05-10T04:28:03;5.17;;;4.77;;
10605;SDS011;5350;42.698;23.148;2023-05-10T04:30:30;6.57;;;5.40;;
10605;SDS011;5350;42.698;23.148;2023-05-10T04:32:57;5.30;;;4.80;;
10605;SDS011;5350;42.698;23.148;2023-05-10T04:35:23;6.67;;;4.80;;
10605;SDS011;5350;42.698;23.148;2023-05-10T04:37:51;5.60;;;4.80;;
10605;SDS011;5350;42.698;23.148;2023-05-10T04:40:18;7.20;;;4.47;;
10605;SDS011;5350;42.698;23.148;2023-05-10T04:42:45;6.37;;;4.57;;
10605;SDS011;5350;42.698;23.148;2023-05-10T04:45:12;7.77;;;5.33;;
10605;SDS011;5350;42.698;23.148;2023-05-10T04:47:39;5.13;;;4.67;;
10605;SDS011;5350;42.698;23.148;2023-05-10T04:50:06;6.40;;;5.20;;
10605;SDS011;5350;42.698;23.148;2023-05-10T04:52:34;5.87;;;5.00;;
10605;SDS011;5350;42.698;23.148;2023-05-10T04:55:02;6.87;;;5.27;;
10605;SDS011;5350;42.698;23.148;2023-05-10T04:57:30;7.53;;;5.17;;
10605;SDS011;5350;42.698;23.148;2023-05-10T04:59:56;6.00;;;5.40;;
10605;SDS011;5350;42.698;23.148;2023-05-10T05:02:23;6.37;;;5.53;;
10605;SDS011;5350;42.698;23.148;2023-05-10T05:04:50;7.57;;;5.87;;
10605;SDS011;5350;42.698;23.148;2023-05-10T05:07:16;6.43;;;5.83;;
10605;SDS011;5350;42.698;23.148;2023-05-10T05:09:43;9.67;;;7.37;;
10605;SDS011;5350;42.698;23.148;2023-05-10T05:12:11;13.23;;;10.13;;
10605;SDS011;5350;42.698;23.148;2023-05-10T05:14:39;15.00;;;10.50;;
10605;SDS011;5350;42.698;23.148;2023-05-10T05:17:06;10.97;;;9.17;;
10605;SDS011;5350;42.698;23.148;2023-05-10T05:19:32;11.87;;;8.93;;
10605;SDS011;5350;42.698;23.148;2023-05-10T05:21:59;12.87;;;7.33;;
10605;SDS011;5350;42.698;23.148;2023-05-10T05:24:26;13.40;;;9.90;;
10605;SDS011;5350;42.698;23.148;2023-05-10T05:26:53;13.40;;;10.13;;
10605;SDS011;5350;42.698;23.148;2023-05-10T05:29:21;11.37;;;8.30;;
10605;SDS011;5350;42.698;23.148;2023-05-10T05:31:47;8.47;;;7.10;;
10605;SDS011;5350;42.698;23.148;2023-05-10T05:34:14;7.80;;;6.80;;
10605;SDS011;5350;42.698;23.148;2023-05-10T05:36:41;7.13;;;6.50;;
10605;SDS011;5350;42.698;23.148;2023-05-10T05:39:07;10.20;;;6.37;;
10605;SDS011;5350;42.698;23.148;2023-05-10T05:41:34;8.10;;;6.07;;
10605;SDS011;5350;42.698;23.148;2023-05-10T05:44:01;9.40;;;7.03;;
10605;SDS011;5350;42.698;23.148;2023-05-10T05:46:29;7.73;;;6.43;;
10605;SDS011;5350;42.698;23.148;2023-05-10T05:48:55;10.90;;;6.27;;
10605;SDS011;5350;42.698;23.148;2023-05-10T05:51:22;7.90;;;6.60;;
10605;SDS011;5350;42.698;23.148;2023-05-10T05:53:49;11.37;;;6.80;;
10605;SDS011;5350;42.698;23.148;2023-05-10T05:56:16;8.13;;;7.30;;
10605;SDS011;5350;42.698;23.148;2023-05-10T05:58:49;9.77;;;7.63;;
10605;SDS011;5350;42.698;23.148;2023-05-10T06:01:15;8.17;;;7.10;;
10605;SDS011;5350;42.698;23.148;2023-05-10T06:03:44;9.23;;;7.60;;
10605;SDS011;5350;42.698;23.148;2023-05-10T06:06:10;10.07;;;8.20;;
10605;SDS011;5350;42.698;23.148;2023-05-10T06:08:37;8.77;;;7.57;;
10605;SDS011;5350;42.698;23.148;2023-05-10T06:11:04;7.87;;;7.07;;
10605;SDS011;5350;42.698;23.148;2023-05-10T06:13:31;10.23;;;8.40;;
10605;SDS011;5350;42.698;23.148;2023-05-10T06:16:00;8.80;;;7.90;;
10605;SDS011;5350;42.698;23.148;2023-05-10T06:18:27;11.30;;;7.93;;
10605;SDS011;5350;42.698;23.148;2023-05-10T06:20:55;9.87;;;8.00;;
10605;SDS011;5350;42.698;23.148;2023-05-10T06:23:22;9.43;;;7.63;;
10605;SDS011;5350;42.698;23.148;2023-05-10T06:25:50;9.10;;;7.60;;
10605;SDS011;5350;42.698;23.148;2023-05-10T06:28:20;10.20;;;8.00;;
10605;SDS011;5350;42.698;23.148;2023-05-10T06:30:46;12.90;;;8.90;;
10605;SDS011;5350;42.698;23.148;2023-05-10T06:33:13;10.30;;;8.13;;
10605;SDS011;5350;42.698;23.148;2023-05-10T06:35:41;13.67;;;10.73;;
10605;SDS011;5350;42.698;23.148;2023-05-10T06:38:09;12.50;;;9.67;;
10605;SDS011;5350;42.698;23.148;2023-05-10T06:40:35;12.53;;;9.03;;
10605;SDS011;5350;42.698;23.148;2023-05-10T06:43:02;9.87;;;8.87;;
10605;SDS011;5350;42.698;23.148;2023-05-10T06:45:29;12.53;;;9.80;;
10605;SDS011;5350;42.698;23.148;2023-05-10T06:47:56;12.47;;;9.83;;
10605;SDS011;5350;42.698;23.148;2023-05-10T06:50:23;12.93;;;10.90;;
10605;SDS011;5350;42.698;23.148;2023-05-10T06:52:49;10.00;;;8.93;;
10605;SDS011;5350;42.698;23.148;2023-05-10T06:55:18;12.90;;;9.87;;
10605;SDS011;5350;42.698;23.148;2023-05-10T06:57:45;12.77;;;9.70;;
10605;SDS011;5350;42.698;23.148;2023-05-10T07:00:13;12.03;;;9.97;;
10605;SDS011;5350;42.698;23.148;2023-05-10T07:02:40;11.23;;;8.77;;
10605;SDS011;5350;42.698;23.148;2023-05-10T07:05:07;9.93;;;8.87;;
10605;SDS011;5350;42.698;23.148;2023-05-10T07:07:34;12.90;;;9.20;;
10605;SDS011;5350;42.698;23.148;2023-05-10T07:10:01;14.20;;;8.90;;
10605;SDS011;5350;42.698;23.148;2023-05-10T07:12:30;9.63;;;8.43;;
10605;SDS011;5350;42.698;23.148;2023-05-10T07:14:58;10.23;;;8.63;;
10605;SDS011;5350;42.698;23.148;2023-05-10T07:17:24;9.53;;;8.53;;
10605;SDS011;5350;42.698;23.148;2023-05-10T07:19:51;10.20;;;8.73;;
10605;SDS011;5350;42.698;23.148;2023-05-10T07:22:18;9.77;;;8.13;;
10605;SDS011;5350;42.698;23.148;2023-05-10T07:24:45;9.73;;;7.90;;
10605;SDS011;5350;42.698;23.148;2023-05-10T07:27:11;9.50;;;7.93;;
10605;SDS011;5350;42.698;23.148;2023-05-10T07:29:40;8.97;;;7.57;;
10605;SDS011;5350;42.698;23.148;2023-05-10T07:32:07;9.70;;;8.03;;
10605;SDS011;5350;42.698;23.148;2023-05-10T07:34:33;10.87;;;8.67;;
10605;SDS011;5350;42.698;23.148;2023-05-10T07:37:00;11.73;;;7.90;;
10605;SDS011;5350;42.698;23.148;2023-05-10T07:39:27;8.33;;;7.43;;
10605;SDS011;5350;42.698;23.148;2023-05-10T07:41:54;9.63;;;7.80;;
10605;SDS011;5350;42.698;23.148;2023-05-10T07:44:21;8.17;;;7.30;;
10605;SDS011;5350;42.698;23.148;2023-05-10T07:46:49;8.57;;;7.67;;
10605;SDS011;5350;42.698;23.148;2023-05-10T07:49:16;11.43;;;8.30;;
10605;SDS011;5350;42.698;23.148;2023-05-10T07:51:43;9.53;;;7.87;;
10605;SDS011;5350;42.698;23.148;2023-05-10T07:54:09;10.13;;;7.23;;
10605;SDS011;5350;42.698;23.148;2023-05-10T07:56:37;11.43;;;7.23;;
10605;SDS011;5350;42.698;23.148;2023-05-10T07:59:05;9.80;;;8.10;;
10605;SDS011;5350;42.698;23.148;2023-05-10T08:01:33;10.37;;;9.00;;
10605;SDS011;5350;42.698;23.148;2023-05-10T08:04:01;10.40;;;8.77;;
10605;SDS011;5350;42.698;23.148;2023-05-10T08:06:28;9.33;;;8.03;;
10605;SDS011;5350;42.698;23.148;2023-05-10T08:08:55;9.97;;;8.00;;
10605;SDS011;5350;42.698;23.148;2023-05-10T08:11:22;9.93;;;8.23;;
10605;SDS011;5350;42.698;23.148;2023-05-10T08:13:50;9.27;;;8.30;;
10605;SDS011;5350;42.698;23.148;2023-05-10T08:16:17;11.37;;;8.40;;
10605;SDS011;5350;42.698;23.148;2023-05-10T08:18:44;9.30;;;8.30;;
10605;SDS011;5350;42.698;23.148;2023-05-10T08:21:13;11.47;;;8.93;;
10605;SDS011;5350;42.698;23.148;2023-05-10T08:23:39;9.07;;;8.17;;
10605;SDS011;5350;42.698;23.148;2023-05-10T08:26:08;10.77;;;9.20;;
10605;SDS011;5350;42.698;23.148;2023-05-10T08:28:35;10.27;;;8.40;;
10605;SDS011;5350;42.698;23.148;2023-05-10T08:31:02;11.07;;;8.20;;
10605;SDS011;5350;42.698;23.148;2023-05-10T08:33:28;12.27;;;9.60;;
10605;SDS011;5350;42.698;23.148;2023-05-10T08:35:55;12.13;;;9.37;;
10605;SDS011;5350;42.698;23.148;2023-05-10T08:38:23;10.43;;;9.23;;
10605;SDS011;5350;42.698;23.148;2023-05-10T08:40:50;11.53;;;8.83;;
10605;SDS011;5350;42.698;23.148;2023-05-10T08:43:21;10.53;;;8.73;;
10605;SDS011;5350;42.698;23.148;2023-05-10T08:45:52;10.27;;;8.50;;
10605;SDS011;5350;42.698;23.148;2023-05-10T08:48:20;9.33;;;8.30;;
10605;SDS011;5350;42.698;23.148;2023-05-10T08:50:49;8.13;;;7.33;;
10605;SDS011;5350;42.698;23.148;2023-05-10T08:53:19;9.30;;;8.40;;
10605;SDS011;5350;42.698;23.148;2023-05-10T08:55:48;9.33;;;7.03;;
10605;SDS011;5350;42.698;23.148;2023-05-10T08:58:16;7.93;;;7.13;;
10605;SDS011;5350;42.698;23.148;2023-05-10T09:00:44;9.60;;;7.90;;
10605;SDS011;5350;42.698;23.148;2023-05-10T09:03:11;9.13;;;8.23;;
10605;SDS011;5350;42.698;23.148;2023-05-10T09:05:39;8.90;;;8.00;;
10605;SDS011;5350;42.698;23.148;2023-05-10T09:08:06;9.40;;;8.50;;
10605;SDS011;5350;42.698;23.148;2023-05-10T09:10:35;9.57;;;8.57;;
10605;SDS011;5350;42.698;23.148;2023-05-10T09:13:04;8.57;;;7.67;;
10605;SDS011;5350;42.698;23.148;2023-05-10T09:15:31;8.77;;;7.53;;
10605;SDS011;5350;42.698;23.148;2023-05-10T09:17:58;9.53;;;7.47;;
10605;SDS011;5350;42.698;23.148;2023-05-10T09:20:27;7.70;;;6.90;;
10605;SDS011;5350;42.698;23.148;2023-05-10T09:22:54;8.50;;;7.47;;
10605;SDS011;5350;42.698;23.148;2023-05-10T09:25:21;7.87;;;7.07;;
10605;SDS011;5350;42.698;23.148;2023-05-10T09:27:48;7.43;;;6.73;;
10605;SDS011;5350;42.698;23.148;2023-05-10T09:30:17;8.07;;;7.33;;
10605;SDS011;5350;42.698;23.148;2023-05-10T09:32:49;8.03;;;7.23;;
10605;SDS011;5350;42.698;23.148;2023-05-10T09:35:17;7.63;;;6.97;;
10605;SDS011;5350;42.698;23.148;2023-05-10T09:37:45;8.53;;;7.70;;
10605;SDS011;5350;42.698;23.148;2023-05-10T09:40:14;7.80;;;6.87;;
10605;SDS011;5350;42.698;23.148;2023-05-10T09:42:42;8.23;;;7.37;;
10605;SDS011;5350;42.698;23.148;2023-05-10T09:45:20;8.77;;;7.97;;
10605;SDS011;5350;42.698;23.148;2023-05-10T09:47:50;8.57;;;7.67;;
10605;SDS011;5350;42.698;23.148;2023-05-10T09:50:18;7.80;;;7.07;;
10605;SDS011;5350;42.698;23.148;2023-05-10T09:52:46;8.83;;;7.60;;
10605;SDS011;5350;42.698;23.148;2023-05-10T09:55:14;9.90;;;8.30;;
10605;SDS011;5350;42.698;23.148;2023-05-10T09:57:41;7.57;;;6.87;;
10605;SDS011;5350;42.698;23.148;2023-05-10T10:27:11;8.40;;;7.67;;
10605;SDS011;5350;42.698;23.148;2023-05-10T10:29:48;8.40;;;7.50;;
10605;SDS011;5350;42.698;23.148;2023-05-10T10:32:25;8.67;;;7.57;;
10605;SDS011;5350;42.698;23.148;2023-05-10T10:34:56;8.47;;;7.50;;
10605;SDS011;5350;42.698;23.148;2023-05-10T10:37:23;7.60;;;6.90;;
10605;SDS011;5350;42.698;23.148;2023-05-10T10:42:50;8.00;;;7.20;;
10605;SDS011;5350;42.698;23.148;2023-05-10T10:45:18;9.30;;;8.40;;
10605;SDS011;5350;42.698;23.148;2023-05-10T10:47:46;8.93;;;7.43;;
10605;SDS011;5350;42.698;23.148;2023-05-10T10:50:13;7.90;;;7.20;;
10605;SDS011;5350;42.698;23.148;2023-05-10T10:52:41;8.27;;;7.40;;
10605;SDS011;5350;42.698;23.148;2023-05-10T10:55:09;7.43;;;6.83;;
10605;SDS011;5350;42.698;23.148;2023-05-10T10:57:44;8.93;;;7.50;;
10605;SDS011;5350;42.698;23.148;2023-05-10T11:00:27;7.63;;;7.03;;
10605;SDS011;5350;42.698;23.148;2023-05-10T11:02:56;7.63;;;6.93;;
10605;SDS011;5350;42.698;23.148;2023-05-10T11:08:16;9.17;;;7.37;;
10605;SDS011;5350;42.698;23.148;2023-05-10T11:10:51;8.77;;;6.47;;
10605;SDS011;5350;42.698;23.148;2023-05-10T11:13:29;8.47;;;6.50;;
10605;SDS011;5350;42.698;23.148;2023-05-10T11:15:58;7.27;;;6.03;;
10605;SDS011;5350;42.698;23.148;2023-05-10T11:18:36;6.70;;;6.10;;
10605;SDS011;5350;42.698;23.148;2023-05-10T11:21:03;7.77;;;6.97;;
10605;SDS011;5350;42.698;23.148;2023-05-10T11:23:31;6.77;;;6.10;;
10605;SDS011;5350;42.698;23.148;2023-05-10T11:25:58;8.40;;;7.70;;
10605;SDS011;5350;42.698;23.148;2023-05-10T11:28:26;8.83;;;7.60;;
10605;SDS011;5350;42.698;23.148;2023-05-10T11:30:53;7.83;;;6.50;;
10605;SDS011;5350;42.698;23.148;2023-05-10T11:33:22;7.50;;;6.80;;
10605;SDS011;5350;42.698;23.148;2023-05-10T11:35:48;7.23;;;6.53;;
10605;SDS011;5350;42.698;23.148;2023-05-10T11:38:15;7.77;;;7.07;;
10605;SDS011;5350;42.698;23.148;2023-05-10T11:40:42;8.73;;;7.00;;
10605;SDS011;5350;42.698;23.148;2023-05-10T11:43:09;7.40;;;6.63;;
10605;SDS011;5350;42.698;23.148;2023-05-10T11:45:37;8.20;;;6.60;;
10605;SDS011;5350;42.698;23.148;2023-05-10T11:48:06;7.70;;;6.77;;
10605;SDS011;5350;42.698;23.148;2023-05-10T11:50:34;7.37;;;6.67;;
10605;SDS011;5350;42.698;23.148;2023-05-10T11:53:01;8.63;;;6.60;;
10605;SDS011;5350;42.698;23.148;2023-05-10T11:55:28;8.37;;;7.00;;
10605;SDS011;5350;42.698;23.148;2023-05-10T11:57:59;8.17;;;7.40;;
10605;SDS011;5350;42.698;23.148;2023-05-10T12:00:27;7.90;;;7.10;;
10605;SDS011;5350;42.698;23.148;2023-05-10T12:02:54;8.03;;;7.03;;
10605;SDS011;5350;42.698;23.148;2023-05-10T12:05:20;9.03;;;7.10;;
10605;SDS011;5350;42.698;23.148;2023-05-10T12:07:49;9.37;;;7.07;;
10605;SDS011;5350;42.698;23.148;2023-05-10T12:10:15;7.53;;;6.82;;
10605;SDS011;5350;42.698;23.148;2023-05-10T12:12:43;10.40;;;8.33;;
10605;SDS011;5350;42.698;23.148;2023-05-10T12:15:11;13.83;;;8.67;;
10605;SDS011;5350;42.698;23.148;2023-05-10T12:17:38;7.03;;;6.43;;
10605;SDS011;5350;42.698;23.148;2023-05-10T12:20:16;7.30;;;6.70;;
10605;SDS011;5350;42.698;23.148;2023-05-10T12:22:44;7.17;;;6.50;;
10605;SDS011;5350;42.698;23.148;2023-05-10T12:25:13;11.47;;;7.00;;
10605;SDS011;5350;42.698;23.148;2023-05-10T12:27:40;8.30;;;6.43;;
10605;SDS011;5350;42.698;23.148;2023-05-10T12:30:13;12.10;;;8.50;;
10605;SDS011;5350;42.698;23.148;2023-05-10T12:32:45;8.43;;;7.60;;
10605;SDS011;5350;42.698;23.148;2023-05-10T12:35:12;9.30;;;8.10;;
10605;SDS011;5350;42.698;23.148;2023-05-10T12:37:38;8.90;;;8.00;;
10605;SDS011;5350;42.698;23.148;2023-05-10T12:40:06;8.90;;;8.10;;
10605;SDS011;5350;42.698;23.148;2023-05-10T12:42:35;8.27;;;6.87;;
10605;SDS011;5350;42.698;23.148;2023-05-10T12:45:02;11.03;;;10.00;;
10605;SDS011;5350;42.698;23.148;2023-05-10T12:47:30;8.93;;;8.03;;
10605;SDS011;5350;42.698;23.148;2023-05-10T12:49:57;8.07;;;6.90;;
10605;SDS011;5350;42.698;23.148;2023-05-10T12:52:24;9.70;;;8.80;;
10605;SDS011;5350;42.698;23.148;2023-05-10T12:54:51;8.00;;;7.20;;
10605;SDS011;5350;42.698;23.148;2023-05-10T12:57:18;8.73;;;7.63;;
10605;SDS011;5350;42.698;23.148;2023-05-10T12:59:46;9.63;;;8.47;;
10605;SDS011;5350;42.698;23.148;2023-05-10T13:02:13;9.50;;;7.70;;
10605;SDS011;5350;42.698;23.148;2023-05-10T13:04:40;7.40;;;6.73;;
10605;SDS011;5350;42.698;23.148;2023-05-10T13:07:07;8.87;;;7.50;;
10605;SDS011;5350;42.698;23.148;2023-05-10T13:09:34;8.27;;;7.47;;
10605;SDS011;5350;42.698;23.148;2023-05-10T13:12:00;7.80;;;7.00;;
10605;SDS011;5350;42.698;23.148;2023-05-10T13:14:28;8.23;;;6.90;;
10605;SDS011;5350;42.698;23.148;2023-05-10T13:16:57;8.17;;;7.40;;
10605;SDS011;5350;42.698;23.148;2023-05-10T13:19:25;8.70;;;6.80;;
10605;SDS011;5350;42.698;23.148;2023-05-10T13:21:52;8.57;;;7.53;;
10605;SDS011;5350;42.698;23.148;2023-05-10T13:24:19;9.07;;;7.50;;
10605;SDS011;5350;42.698;23.148;2023-05-10T13:26:45;9.97;;;7.60;;
10605;SDS011;5350;42.698;23.148;2023-05-10T13:29:12;8.83;;;7.93;;
10605;SDS011;5350;42.698;23.148;2023-05-10T13:31:39;11.40;;;7.70;;
10605;SDS011;5350;42.698;23.148;2023-05-10T13:34:07;8.87;;;7.27;;
10605;SDS011;5350;42.698;23.148;2023-05-10T13:36:33;8.03;;;7.23;;
10605;SDS011;5350;42.698;23.148;2023-05-10T13:39:00;9.03;;;7.80;;
10605;SDS011;5350;42.698;23.148;2023-05-10T13:41:28;9.33;;;8.43;;
10605;SDS011;5350;42.698;23.148;2023-05-10T13:43:55;9.77;;;8.77;;
10605;SDS011;5350;42.698;23.148;2023-05-10T13:46:21;9.33;;;7.73;;
10605;SDS011;5350;42.698;23.148;2023-05-10T13:48:48;8.67;;;7.77;;
10605;SDS011;5350;42.698;23.148;2023-05-10T13:51:16;9.57;;;8.50;;
10605;SDS011;5350;42.698;23.148;2023-05-10T13:53:43;7.70;;;6.90;;
10605;SDS011;5350;42.698;23.148;2023-05-10T13:59:04;11.53;;;9.50;;
10605;SDS011;5350;42.698;23.148;2023-05-10T14:01:31;10.67;;;7.47;;
10605;SDS011;5350;42.698;23.148;2023-05-10T14:03:58;8.43;;;7.40;;
10605;SDS011;5350;42.698;23.148;2023-05-10T14:06:26;8.20;;;7.40;;
10605;SDS011;5350;42.698;23.148;2023-05-10T14:08:53;8.73;;;7.83;;
10605;SDS011;5350;42.698;23.148;2023-05-10T14:11:20;9.33;;;7.13;;
10605;SDS011;5350;42.698;23.148;2023-05-10T14:13:46;9.50;;;8.60;;
10605;SDS011;5350;42.698;23.148;2023-05-10T14:16:13;9.83;;;8.83;;
10605;SDS011;5350;42.698;23.148;2023-05-10T14:18:40;8.00;;;7.20;;
10605;SDS011;5350;42.698;23.148;2023-05-10T14:21:07;7.87;;;7.17;;
10605;SDS011;5350;42.698;23.148;2023-05-10T14:23:35;7.90;;;7.20;;
10605;SDS011;5350;42.698;23.148;2023-05-10T14:26:02;8.07;;;7.27;;
10605;SDS011;5350;42.698;23.148;2023-05-10T14:28:29;8.00;;;7.20;;
10605;SDS011;5350;42.698;23.148;2023-05-10T14:30:55;7.80;;;7.10;;
10605;SDS011;5350;42.698;23.148;2023-05-10T14:33:22;8.03;;;7.23;;
10605;SDS011;5350;42.698;23.148;2023-05-10T14:35:49;9.37;;;8.37;;
10605;SDS011;5350;42.698;23.148;2023-05-10T14:38:16;9.07;;;7.90;;
10605;SDS011;5350;42.698;23.148;2023-05-10T14:40:44;10.97;;;9.07;;
10605;SDS011;5350;42.698;23.148;2023-05-10T14:43:11;9.80;;;8.90;;
10605;SDS011;5350;42.698;23.148;2023-05-10T14:45:37;9.63;;;8.67;;
10605;SDS011;5350;42.698;23.148;2023-05-10T14:48:04;8.63;;;7.83;;
10605;SDS011;5350;42.698;23.148;2023-05-10T14:50:33;10.67;;;9.60;;
10605;SDS011;5350;42.698;23.148;2023-05-10T14:56:05;9.47;;;8.57;;
10605;SDS011;5350;42.698;23.148;2023-05-10T14:58:32;9.53;;;8.33;;
10605;SDS011;5350;42.698;23.148;2023-05-10T15:00:59;8.63;;;7.83;;
10605;SDS011;5350;42.698;23.148;2023-05-10T15:03:25;11.40;;;7.73;;
10605;SDS011;5350;42.698;23.148;2023-05-10T15:05:52;8.90;;;8.00;;
10605;SDS011;5350;42.698;23.148;2023-05-10T15:08:21;9.00;;;8.00;;
10605;SDS011;5350;42.698;23.148;2023-05-10T15:10:48;8.73;;;7.73;;
10605;SDS011;5350;42.698;23.148;2023-05-10T15:13:17;8.63;;;7.73;;
10605;SDS011;5350;42.698;23.148;2023-05-10T15:15:43;9.60;;;7.87;;
10605;SDS011;5350;42.698;23.148;2023-05-10T15:18:10;9.37;;;8.47;;
10605;SDS011;5350;42.698;23.148;2023-05-10T15:20:37;9.30;;;8.10;;
10605;SDS011;5350;42.698;23.148;2023-05-10T15:23:03;8.37;;;7.43;;
10605;SDS011;5350;42.698;23.148;2023-05-10T15:25:30;9.13;;;8.23;;
10605;SDS011;5350;42.698;23.148;2023-05-10T15:27:59;10.10;;;9.10;;
10605;SDS011;5350;42.698;23.148;2023-05-10T15:30:28;10.70;;;9.40;;
10605;SDS011;5350;42.698;23.148;2023-05-10T15:32:54;9.43;;;8.37;;